Time;durP1;ratioP1;P1;durP2;ratioP2;P2;SDS_P1;SDS_P2;PMS_P1;PMS_P2;Temp;Humidity;BMP_temperature;BMP_pressure;BME280_temperature;BME280_humidity;BME280_pressure;Samples;Min_cycle;Max_cycle;Signal;HPM_P1;HPM_P2
2022/06/14 00:01:35;;;;;;;10.90;3.95;;;13.10;69.80;;;;;;5094093;28;20041;-78
2022/06/14 00:04:01;;;;;;;9.90;4.05;;;13.10;69.70;;;;;;5093446;28;20030;-78
2022/06/14 00:06:30;;;;;;;10.40;3.92;;;13.10;69.60;;;;;;5111649;28;20038;-77
2022/06/14 00:08:56;;;;;;;9.02;4.30;;;13.00;69.80;;;;;;5108204;28;20016;-77
2022/06/14 00:11:26;;;;;;;9.07;3.78;;;13.00;70.10;;;;;;5102624;28;20023;-77
2022/06/14 00:13:54;;;;;;;9.43;4.20;;;13.00;70.30;;;;;;5106968;28;20020;-77
2022/06/14 00:16:21;;;;;;;12.30;4.15;;;13.00;70.30;;;;;;5111314;28;20031;-77
2022/06/14 00:18:46;;;;;;;8.73;3.60;;;13.00;70.40;;;;;;5107551;28;20036;-77
2022/06/14 00:21:12;;;;;;;8.75;4.03;;;13.00;70.10;;;;;;5090422;28;20038;-77
2022/06/14 00:23:39;;;;;;;8.07;3.40;;;13.00;70.30;;;;;;5107974;28;20047;-76
2022/06/14 00:26:05;;;;;;;10.63;3.67;;;13.00;70.10;;;;;;5108886;28;20050;-77
2022/06/14 00:28:33;;;;;;;8.73;3.35;;;12.90;69.90;;;;;;5111083;28;20023;-78
2022/06/14 00:31:07;;;;;;;7.88;3.35;;;12.90;70.10;;;;;;5109712;28;20036;-77
2022/06/14 00:33:33;;;;;;;7.43;3.42;;;12.90;70.20;;;;;;5092373;28;20032;-77
2022/06/14 00:36:05;;;;;;;8.30;3.72;;;12.90;70.30;;;;;;5109779;28;20024;-77
2022/06/14 00:38:33;;;;;;;10.35;4.38;;;12.80;70.30;;;;;;5104194;28;20351;-76
2022/06/14 00:41:00;;;;;;;10.27;3.92;;;12.70;70.40;;;;;;5103631;28;20036;-76
2022/06/14 00:43:28;;;;;;;7.22;3.38;;;12.60;70.80;;;;;;5107512;28;20032;-78
2022/06/14 00:46:28;;;;;;;8.90;4.03;;;12.60;71.00;;;;;;5108845;28;20070;-77
2022/06/14 00:49:10;;;;;;;8.57;3.60;;;12.60;71.10;;;;;;5068307;28;20043;-78
2022/06/14 00:51:44;;;;;;;8.20;3.50;;;12.60;71.30;;;;;;5110486;28;20313;-74
2022/06/14 00:54:13;;;;;;;9.07;3.58;;;12.50;71.50;;;;;;5102973;28;20116;-77
2022/06/14 00:56:50;;;;;;;7.20;3.55;;;12.60;71.60;;;;;;5108925;28;20095;-76
2022/06/14 00:59:28;;;;;;;7.85;3.03;;;12.60;71.60;;;;;;5106747;28;20107;-77
2022/06/14 01:02:26;;;;;;;9.13;3.63;;;12.60;71.50;;;;;;5109495;28;20027;-78
2022/06/14 01:04:53;;;;;;;8.68;3.20;;;12.60;71.50;;;;;;5089302;28;20304;-77
2022/06/14 01:07:29;;;;;;;8.75;3.63;;;12.50;71.60;;;;;;5104934;28;20035;-77
2022/06/14 01:10:12;;;;;;;10.48;3.85;;;12.50;71.80;;;;;;5107493;27;20044;-76
2022/06/14 01:12:43;;;;;;;8.75;3.83;;;12.40;71.80;;;;;;5103540;28;20032;-77
2022/06/14 01:15:21;;;;;;;9.43;4.00;;;12.30;72.20;;;;;;5103244;28;20054;-78
2022/06/14 01:17:50;;;;;;;8.43;3.70;;;12.20;72.20;;;;;;5109552;28;20047;-78
2022/06/14 01:20:19;;;;;;;8.45;3.70;;;12.20;72.30;;;;;;5101822;28;20021;-78
2022/06/14 01:22:46;;;;;;;11.20;4.28;;;12.10;72.50;;;;;;5105902;28;20084;-78
2022/06/14 01:25:12;;;;;;;10.75;4.60;;;12.20;72.50;;;;;;5107000;28;20044;-78
2022/06/14 01:27:40;;;;;;;7.10;3.60;;;12.10;72.40;;;;;;5108395;27;20099;-77
2022/06/14 01:30:09;;;;;;;8.30;4.07;;;12.10;72.60;;;;;;5110000;27;20032;-77
2022/06/14 01:32:40;;;;;;;10.73;3.58;;;12.10;72.90;;;;;;5108186;28;20031;-78
2022/06/14 01:35:13;;;;;;;7.03;3.60;;;12.10;72.90;;;;;;5102945;28;20082;-78
2022/06/14 01:37:39;;;;;;;8.98;3.67;;;12.10;73.10;;;;;;5106045;28;20054;-78
2022/06/14 01:40:06;;;;;;;8.77;3.95;;;12.10;73.10;;;;;;5103829;28;20027;-77
2022/06/14 01:42:44;;;;;;;11.65;3.80;;;12.10;73.10;;;;;;5109568;28;20016;-77
2022/06/14 01:45:32;;;;;;;7.85;3.78;;;12.10;73.20;;;;;;5097605;28;20038;-77
2022/06/14 01:48:13;;;;;;;9.73;3.75;;;12.10;73.30;;;;;;5090077;28;20040;-77
2022/06/14 01:53:40;;;;;;;8.00;4.13;;;12.00;73.40;;;;;;5106973;28;20047;-77
2022/06/14 01:56:09;;;;;;;9.55;3.63;;;12.00;73.60;;;;;;5107241;28;20016;-77
2022/06/14 01:58:56;;;;;;;9.35;4.15;;;11.90;73.90;;;;;;5106179;28;20020;-78
2022/06/14 02:01:31;;;;;;;9.00;4.10;;;11.90;74.10;;;;;;5104102;28;20135;-76
2022/06/14 02:07:06;;;;;;;8.88;3.80;;;11.80;74.40;;;;;;5105741;28;20032;-77
2022/06/14 02:09:42;;;;;;;8.65;4.38;;;11.70;74.50;;;;;;5102174;28;20033;-79
2022/06/14 02:12:13;;;;;;;8.43;3.95;;;11.70;74.60;;;;;;5107318;28;20069;-76
2022/06/14 02:14:46;;;;;;;8.70;4.28;;;11.70;74.90;;;;;;5104815;28;20040;-77
2022/06/14 02:17:25;;;;;;;10.77;4.35;;;11.60;75.00;;;;;;5106975;28;20144;-78
2022/06/14 02:19:59;;;;;;;13.02;4.45;;;11.60;75.30;;;;;;5103425;28;20036;-78
2022/06/14 02:22:35;;;;;;;9.13;4.05;;;11.50;75.50;;;;;;5101060;28;20058;-78
2022/06/14 02:25:16;;;;;;;6.85;3.72;;;11.50;76.00;;;;;;5104211;28;20056;-77
2022/06/14 02:27:51;;;;;;;10.50;4.20;;;11.50;76.10;;;;;;5105157;28;20028;-77
2022/06/14 02:30:32;;;;;;;12.30;4.50;;;11.50;76.30;;;;;;5110246;28;20024;-77
2022/06/14 02:33:58;;;;;;;9.05;4.18;;;11.50;76.20;;;;;;5108924;28;20303;-77
2022/06/14 02:36:46;;;;;;;7.13;3.90;;;11.50;76.20;;;;;;5006290;28;20038;-76
2022/06/14 02:39:20;;;;;;;11.02;4.57;;;11.50;76.40;;;;;;4989942;28;20029;-77
2022/06/14 02:42:09;;;;;;;9.23;4.10;;;11.50;76.50;;;;;;5072721;28;20017;-77
2022/06/14 02:44:46;;;;;;;7.57;3.95;;;11.40;76.60;;;;;;5105052;28;20191;-76
2022/06/14 02:47:20;;;;;;;12.38;4.15;;;11.40;76.30;;;;;;5110381;28;20024;-77
2022/06/14 02:49:55;;;;;;;12.20;4.78;;;11.40;76.40;;;;;;5106524;28;20158;-77
2022/06/14 02:52:29;;;;;;;11.38;4.50;;;11.40;76.60;;;;;;5112020;28;20070;-78
2022/06/14 02:55:03;;;;;;;6.57;3.58;;;11.30;76.70;;;;;;5114067;28;20020;-78
2022/06/14 02:57:38;;;;;;;9.00;4.10;;;11.30;77.00;;;;;;5111614;28;20028;-78
2022/06/14 03:00:24;;;;;;;11.38;4.68;;;11.30;77.10;;;;;;5111205;27;20034;-78
2022/06/14 03:03:06;;;;;;;8.77;4.32;;;11.30;77.00;;;;;;5108013;28;20020;-78
2022/06/14 03:05:45;;;;;;;8.48;4.38;;;11.20;77.00;;;;;;5110620;28;20038;-78
2022/06/14 03:08:27;;;;;;;9.27;4.20;;;11.20;77.00;;;;;;5109151;28;20028;-76
2022/06/14 03:11:07;;;;;;;11.25;4.20;;;11.20;76.90;;;;;;5107802;28;20045;-78
2022/06/14 03:13:55;;;;;;;10.73;5.18;;;11.10;77.00;;;;;;5094097;28;20020;-77
2022/06/14 03:16:44;;;;;;;10.50;4.65;;;11.10;77.00;;;;;;5109335;28;20044;-77
2022/06/14 03:19:35;;;;;;;10.23;4.25;;;11.10;77.10;;;;;;5087784;28;20031;-77
2022/06/14 03:22:50;;;;;;;11.43;4.55;;;11.10;77.20;;;;;;5110624;28;20284;-77
2022/06/14 03:25:29;;;;;;;10.70;4.93;;;11.10;77.30;;;;;;5085774;28;20028;-78
2022/06/14 03:28:17;;;;;;;9.40;4.55;;;11.00;77.50;;;;;;5106390;28;20058;-76
2022/06/14 03:31:04;;;;;;;11.43;5.35;;;11.00;77.60;;;;;;5110160;28;20050;-75
2022/06/14 03:33:45;;;;;;;13.30;5.68;;;11.00;77.90;;;;;;5111922;28;20084;-78
2022/06/14 03:36:11;;;;;;;10.15;4.78;;;10.90;78.00;;;;;;5109244;28;20039;-78
2022/06/14 03:38:49;;;;;;;9.43;4.93;;;10.90;78.30;;;;;;5111087;28;20020;-78
2022/06/14 03:41:19;;;;;;;15.05;5.72;;;10.90;78.50;;;;;;5106677;28;20137;-77
2022/06/14 03:43:46;;;;;;;9.10;4.72;;;10.80;78.70;;;;;;5094516;28;20020;-78
2022/06/14 03:46:20;;;;;;;9.70;5.22;;;10.90;78.80;;;;;;5107032;28;20020;-76
2022/06/14 03:48:49;;;;;;;9.32;5.13;;;10.90;78.70;;;;;;5107111;28;20024;-76
2022/06/14 03:51:41;;;;;;;13.10;5.43;;;10.90;78.60;;;;;;5093343;28;20032;-78
2022/06/14 03:54:41;;;;;;;9.18;5.00;;;10.90;78.40;;;;;;5111127;27;20016;-77
2022/06/14 03:57:07;;;;;;;12.88;5.80;;;11.00;78.40;;;;;;5108217;28;20024;-77
2022/06/14 03:59:51;;;;;;;11.80;6.43;;;11.00;78.50;;;;;;5103939;28;20031;-78
2022/06/14 04:02:54;;;;;;;11.02;5.82;;;11.00;78.30;;;;;;5108971;28;20058;-78
2022/06/14 04:05:26;;;;;;;9.85;5.65;;;11.00;78.60;;;;;;5107973;28;20024;-77
2022/06/14 04:08:20;;;;;;;11.35;6.55;;;11.00;78.50;;;;;;5111656;27;20310;-76
2022/06/14 04:10:57;;;;;;;13.38;6.10;;;11.00;78.30;;;;;;5098223;28;20046;-78
2022/06/14 04:13:26;;;;;;;11.77;5.65;;;11.00;78.20;;;;;;5106870;28;20024;-78
2022/06/14 04:16:03;;;;;;;10.68;5.25;;;11.00;78.50;;;;;;5110165;28;20058;-78
2022/06/14 04:18:35;;;;;;;13.05;6.28;;;11.00;78.50;;;;;;5108210;28;20012;-78
2022/06/14 04:21:24;;;;;;;12.02;5.63;;;11.10;78.40;;;;;;5110287;28;20066;-78
2022/06/14 04:24:10;;;;;;;10.45;5.13;;;11.10;78.50;;;;;;5109160;28;20023;-78
2022/06/14 04:26:45;;;;;;;11.68;5.38;;;11.20;78.20;;;;;;5096196;27;20021;-78
2022/06/14 04:29:27;;;;;;;10.90;5.28;;;11.30;78.00;;;;;;5108999;27;20096;-78
2022/06/14 04:32:20;;;;;;;11.50;5.68;;;11.30;77.80;;;;;;5110462;28;20077;-78
2022/06/14 04:35:04;;;;;;;11.50;5.60;;;11.50;77.60;;;;;;5110491;28;20023;-77
2022/06/14 04:37:36;;;;;;;11.07;6.22;;;11.60;77.20;;;;;;5106992;28;20128;-78
2022/06/14 04:40:11;;;;;;;10.63;5.30;;;11.60;77.00;;;;;;5110104;28;20023;-78
2022/06/14 04:42:43;;;;;;;10.77;5.38;;;11.70;76.80;;;;;;5108695;28;20036;-77
2022/06/14 04:45:12;;;;;;;12.07;5.10;;;11.80;76.70;;;;;;5109415;27;20040;-77
2022/06/14 04:47:46;;;;;;;8.45;4.85;;;11.90;76.50;;;;;;5110062;28;20380;-78
2022/06/14 04:50:27;;;;;;;8.65;4.82;;;11.80;76.40;;;;;;5103631;27;20024;-77
2022/06/14 04:53:05;;;;;;;11.00;4.95;;;11.90;76.20;;;;;;5111390;28;20056;-77
2022/06/14 04:55:40;;;;;;;14.07;5.97;;;11.90;76.00;;;;;;5108357;28;20020;-76
2022/06/14 04:58:19;;;;;;;9.98;5.15;;;12.00;75.60;;;;;;5109261;28;20028;-76
2022/06/14 05:00:59;;;;;;;9.18;4.90;;;11.90;75.60;;;;;;5109906;28;20043;-75
2022/06/14 05:03:36;;;;;;;8.70;4.75;;;12.00;75.70;;;;;;5087416;27;20015;-77
2022/06/14 05:06:04;;;;;;;9.50;4.90;;;12.00;75.80;;;;;;5117220;28;20169;-78
2022/06/14 05:08:41;;;;;;;10.13;4.30;;;12.70;75.70;;;;;;5105613;28;20059;-77
2022/06/14 05:11:27;;;;;;;11.02;3.80;;;14.70;72.20;;;;;;5106233;28;20320;-78
2022/06/14 05:14:17;;;;;;;9.00;4.15;;;16.90;64.60;;;;;;5107343;27;20016;-78
2022/06/14 05:16:56;;;;;;;8.50;3.70;;;19.00;55.80;;;;;;5107216;27;20043;-76
2022/06/14 05:19:32;;;;;;;7.88;2.97;;;20.40;51.10;;;;;;5105166;28;20062;-78
2022/06/14 05:22:21;;;;;;;10.30;3.63;;;21.50;48.40;;;;;;5106725;28;20016;-78
2022/06/14 05:24:47;;;;;;;6.50;3.08;;;22.20;44.20;;;;;;5063707;28;20017;-78
2022/06/14 05:27:24;;;;;;;10.27;3.28;;;23.00;43.60;;;;;;5102841;27;20131;-76
2022/06/14 05:29:59;;;;;;;6.03;2.97;;;23.30;42.30;;;;;;5107522;28;20021;-77
2022/06/14 05:32:51;;;;;;;10.68;3.30;;;23.50;42.70;;;;;;5103103;28;20051;-78
2022/06/14 05:35:35;;;;;;;8.98;3.10;;;24.00;40.90;;;;;;5109662;28;20043;-77
2022/06/14 05:38:28;;;;;;;9.65;3.35;;;24.20;40.60;;;;;;5107191;27;20032;-78
2022/06/14 05:41:03;;;;;;;7.93;2.80;;;24.40;40.60;;;;;;5111565;28;20066;-76
2022/06/14 05:43:50;;;;;;;12.02;3.38;;;24.90;39.90;;;;;;5110862;28;20043;-77
2022/06/14 05:46:25;;;;;;;7.93;3.15;;;24.80;40.00;;;;;;5106154;28;20032;-77
2022/06/14 05:48:52;;;;;;;8.00;3.30;;;25.00;39.60;;;;;;5107832;28;20135;-76
2022/06/14 05:51:33;;;;;;;8.43;3.15;;;24.70;39.40;;;;;;5106645;28;20051;-77
2022/06/14 05:53:59;;;;;;;7.55;3.25;;;24.10;40.40;;;;;;5091668;28;20243;-76
2022/06/14 05:56:35;;;;;;;9.68;3.03;;;23.00;40.70;;;;;;5108182;28;20265;-77
2022/06/14 05:59:04;;;;;;;7.47;2.97;;;21.30;44.00;;;;;;5103442;28;20024;-79
2022/06/14 06:01:37;;;;;;;12.05;3.80;;;20.10;46.60;;;;;;5114875;28;20028;-76
2022/06/14 06:04:10;;;;;;;8.27;3.10;;;19.10;49.00;;;;;;5106823;28;20016;-77
2022/06/14 06:06:41;;;;;;;7.82;3.08;;;18.50;50.70;;;;;;5092634;28;20066;-76
2022/06/14 06:09:25;;;;;;;8.77;3.17;;;18.10;52.80;;;;;;5108410;28;20071;-78
2022/06/14 06:11:59;;;;;;;7.60;3.08;;;17.90;53.70;;;;;;5108690;28;20032;-76
2022/06/14 06:14:33;;;;;;;10.68;3.58;;;17.60;54.40;;;;;;5105502;28;20013;-77
2022/06/14 06:17:14;;;;;;;9.48;4.05;;;17.60;54.10;;;;;;5109792;28;21333;-77
2022/06/14 06:19:52;;;;;;;10.13;2.97;;;17.50;54.80;;;;;;5108036;28;20028;-75
2022/06/14 06:22:25;;;;;;;10.25;3.35;;;17.40;54.70;;;;;;5108807;28;20027;-77
2022/06/14 06:24:56;;;;;;;11.32;3.90;;;17.40;54.90;;;;;;5106379;28;20020;-76
2022/06/14 06:27:28;;;;;;;9.20;3.08;;;17.40;54.90;;;;;;5110085;28;20069;-76
2022/06/14 06:30:17;;;;;;;11.60;3.45;;;17.50;54.60;;;;;;5108095;28;20054;-76
2022/06/14 06:32:44;;;;;;;8.43;3.20;;;17.60;54.50;;;;;;5109378;28;20115;-76
2022/06/14 06:35:11;;;;;;;10.40;3.25;;;17.60;55.00;;;;;;5105404;28;20115;-76
2022/06/14 06:37:54;;;;;;;7.60;2.83;;;17.60;54.70;;;;;;5108504;28;20102;-78
2022/06/14 06:40:23;;;;;;;10.38;3.35;;;17.80;55.40;;;;;;5107643;28;20040;-77
2022/06/14 06:42:58;;;;;;;8.32;3.20;;;17.90;55.00;;;;;;5106402;28;20047;-79
2022/06/14 06:45:31;;;;;;;7.97;3.40;;;18.10;54.60;;;;;;5107522;27;20044;-79
2022/06/14 06:48:21;;;;;;;7.82;3.22;;;18.30;53.90;;;;;;5106082;28;20047;-79
2022/06/14 06:50:53;;;;;;;7.45;2.70;;;18.30;53.80;;;;;;5105003;28;20099;-78
2022/06/14 06:53:18;;;;;;;10.02;3.38;;;18.50;53.40;;;;;;5106936;28;20038;-78
2022/06/14 06:55:44;;;;;;;10.00;3.38;;;18.60;53.20;;;;;;5113175;28;20020;-78
2022/06/14 06:58:28;;;;;;;6.75;2.60;;;18.60;53.00;;;;;;5106316;28;20044;-78
2022/06/14 07:00:57;;;;;;;7.72;2.85;;;18.70;51.90;;;;;;5120210;28;20044;-79
2022/06/14 07:03:46;;;;;;;9.95;3.20;;;18.70;51.00;;;;;;5108431;28;20024;-80
2022/06/14 07:06:20;;;;;;;9.90;3.15;;;18.60;51.20;;;;;;5107917;28;20012;-81
2022/06/14 07:09:00;;;;;;;7.65;2.90;;;18.80;52.10;;;;;;5087359;28;20033;-80
2022/06/14 07:11:34;;;;;;;9.25;3.22;;;18.90;51.40;;;;;;5108285;28;20047;-80
2022/06/14 07:14:18;;;;;;;8.75;3.63;;;19.10;50.60;;;;;;5067912;28;20023;-80
2022/06/14 07:16:58;;;;;;;7.22;2.65;;;19.10;52.30;;;;;;5106208;28;20028;-80
2022/06/14 07:19:41;;;;;;;6.63;2.72;;;19.10;51.30;;;;;;5104230;28;20024;-79
2022/06/14 07:22:23;;;;;;;9.32;2.60;;;19.10;51.30;;;;;;5104989;28;20020;-79
2022/06/14 07:25:00;;;;;;;7.75;2.78;;;19.20;51.20;;;;;;5107549;28;20024;-80
2022/06/14 07:27:42;;;;;;;11.95;3.05;;;19.40;49.40;;;;;;5088501;28;20020;-81
2022/06/14 07:30:47;;;;;;;9.70;3.05;;;19.40;49.90;;;;;;5104824;28;20099;-87
2022/06/14 07:33:14;;;;;;;7.80;2.75;;;19.30;49.40;;;;;;5065426;28;20060;-83
2022/06/14 07:35:48;;;;;;;7.57;2.88;;;19.50;49.70;;;;;;5103398;28;20028;-85
2022/06/14 07:38:36;;;;;;;7.93;2.92;;;19.50;50.50;;;;;;5110462;28;20027;-86
2022/06/14 07:41:23;;;;;;;10.60;2.88;;;19.40;51.30;;;;;;5109989;28;20044;-89
2022/06/14 07:43:53;;;;;;;7.72;3.05;;;19.50;50.60;;;;;;5107086;28;20040;-90
2022/06/14 07:46:36;;;;;;;7.18;2.92;;;19.60;48.70;;;;;;5111021;28;20044;-82
2022/06/14 07:49:14;;;;;;;9.88;3.60;;;19.70;49.40;;;;;;5109513;28;20040;-81
2022/06/14 07:51:53;;;;;;;10.90;3.08;;;19.90;50.30;;;;;;5093634;28;20051;-82
2022/06/14 07:54:47;;;;;;;7.05;2.80;;;20.00;48.50;;;;;;5091546;28;20039;-80
2022/06/14 07:57:20;;;;;;;7.30;2.70;;;20.10;47.20;;;;;;5107810;27;20024;-83
2022/06/14 07:59:52;;;;;;;7.50;2.55;;;20.20;46.70;;;;;;5112188;28;20031;-91
2022/06/14 08:02:36;;;;;;;10.90;3.58;;;20.10;47.00;;;;;;5111596;27;20020;-90
2022/06/14 08:05:15;;;;;;;8.10;3.53;;;20.30;48.40;;;;;;5108053;27;20021;-81
2022/06/14 08:07:43;;;;;;;7.47;2.38;;;20.30;46.70;;;;;;5111513;28;20069;-83
2022/06/14 08:10:16;;;;;;;6.82;2.72;;;20.40;46.10;;;;;;5110054;28;20044;-81
2022/06/14 08:12:55;;;;;;;7.18;2.40;;;20.60;46.90;;;;;;5110793;28;20095;-85
2022/06/14 08:15:24;;;;;;;9.27;2.95;;;20.50;46.50;;;;;;5109414;28;20088;-81
2022/06/14 08:18:00;;;;;;;10.48;3.30;;;20.60;48.30;;;;;;5107021;28;20055;-82
2022/06/14 08:20:54;;;;;;;5.57;2.40;;;20.60;46.70;;;;;;5109334;28;20015;-86
2022/06/14 08:23:31;;;;;;;7.15;2.70;;;21.00;45.40;;;;;;5103747;28;20016;-86
2022/06/14 08:26:04;;;;;;;7.13;2.65;;;20.90;45.60;;;;;;5110689;28;20027;-88
2022/06/14 08:28:40;;;;;;;8.85;2.38;;;20.80;46.10;;;;;;5110545;28;20016;-84
2022/06/14 08:31:21;;;;;;;5.95;1.83;;;20.80;44.90;;;;;;5108626;27;20031;-84
2022/06/14 08:34:02;;;;;;;7.32;2.60;;;21.00;44.70;;;;;;5110391;28;20040;-86
2022/06/14 08:36:40;;;;;;;5.20;1.83;;;21.30;43.10;;;;;;5107757;28;20046;-82
2022/06/14 08:39:12;;;;;;;6.22;2.40;;;21.30;43.30;;;;;;5109348;27;20035;-82
2022/06/14 08:41:55;;;;;;;4.63;2.05;;;21.20;43.20;;;;;;5111693;28;20039;-85
2022/06/14 08:44:25;;;;;;;6.90;2.40;;;21.60;43.70;;;;;;5089446;28;20094;-84
2022/06/14 08:47:38;;;;;;;6.80;2.33;;;21.60;44.00;;;;;;5111312;28;20037;-86
2022/06/14 08:50:13;;;;;;;5.65;1.88;;;21.60;43.20;;;;;;5106709;28;20305;-85
2022/06/14 08:53:03;;;;;;;4.70;1.92;;;21.70;43.90;;;;;;5098918;28;20213;-83
2022/06/14 08:55:51;;;;;;;5.43;2.28;;;21.70;42.40;;;;;;5083630;28;20024;-82
2022/06/14 08:58:22;;;;;;;6.28;2.13;;;21.60;42.60;;;;;;5099786;27;20036;-81
2022/06/14 09:01:26;;;;;;;6.13;2.05;;;21.80;43.00;;;;;;5106049;28;20036;-83
2022/06/14 09:04:04;;;;;;;6.65;2.25;;;22.10;42.50;;;;;;5099407;28;20035;-83
2022/06/14 09:06:45;;;;;;;8.07;1.90;;;22.10;43.30;;;;;;5102339;28;20032;-87
2022/06/14 09:09:39;;;;;;;8.30;2.15;;;22.20;42.90;;;;;;5101293;28;20125;-88
2022/06/14 09:12:25;;;;;;;6.50;2.33;;;22.30;42.90;;;;;;5101620;28;20032;-85
2022/06/14 09:15:28;;;;;;;6.25;2.30;;;22.10;41.60;;;;;;5059759;28;20020;-84
2022/06/14 09:18:27;;;;;;;7.38;2.10;;;22.50;42.30;;;;;;5103218;28;20032;-85
2022/06/14 09:21:12;;;;;;;4.32;2.00;;;22.50;41.50;;;;;;5103517;28;20044;-89
2022/06/14 09:23:40;;;;;;;;;;;22.30;41.40;;;;;;5094358;28;20016;-89
2022/06/14 09:26:24;;;;;;;5.93;2.30;;;22.60;42.10;;;;;;5101805;28;19901;-80
2022/06/14 09:29:18;;;;;;;6.68;2.05;;;22.80;41.20;;;;;;5102725;28;20042;-81
2022/06/14 09:31:54;;;;;;;3.95;1.80;;;22.80;41.10;;;;;;5096739;28;20056;-86
2022/06/14 09:34:32;;;;;;;5.88;2.00;;;22.90;41.40;;;;;;5105203;28;20016;-85
2022/06/14 09:37:16;;;;;;;4.35;2.03;;;22.90;42.10;;;;;;5104517;28;20046;-84
2022/06/14 09:39:54;;;;;;;5.75;2.38;;;23.00;40.70;;;;;;5098869;27;20044;-86
2022/06/14 09:42:28;;;;;;;7.20;2.28;;;23.20;40.60;;;;;;5103477;28;20036;-84
2022/06/14 09:45:23;;;;;;;7.88;2.40;;;23.20;39.60;;;;;;5102810;28;20122;-82
2022/06/14 09:48:05;;;;;;;;;;;23.00;40.80;;;;;;5080938;28;20237;-84
2022/06/14 09:50:43;;;;;;;7.35;2.40;;;23.20;40.10;;;;;;5085300;28;19900;-84
2022/06/14 09:53:22;;;;;;;6.93;2.22;;;23.00;40.40;;;;;;5101984;28;20091;-87
2022/06/14 09:56:12;;;;;;;8.20;2.63;;;23.00;40.50;;;;;;5086677;28;20099;-86
2022/06/14 09:58:44;;;;;;;6.60;2.20;;;23.10;40.80;;;;;;5081791;28;20222;-87
2022/06/14 10:01:24;;;;;;;8.95;2.42;;;23.20;40.40;;;;;;5103672;28;20043;-89
2022/06/14 10:04:28;;;;;;;7.93;2.13;;;23.40;40.50;;;;;;5106800;28;20032;-88
2022/06/14 10:07:14;;;;;;;5.80;2.25;;;23.40;40.10;;;;;;5109170;28;20059;-82
2022/06/14 10:10:00;;;;;;;6.53;2.40;;;23.40;40.10;;;;;;5108099;28;20036;-86
2022/06/14 10:12:26;;;;;;;4.93;2.45;;;23.20;41.10;;;;;;5101224;28;20040;-82
2022/06/14 10:15:04;;;;;;;6.78;2.60;;;23.50;41.00;;;;;;5107674;28;20028;-82
2022/06/14 10:17:44;;;;;;;6.93;2.65;;;23.80;39.80;;;;;;5103244;28;20051;-87
2022/06/14 10:20:31;;;;;;;5.55;2.60;;;23.80;39.90;;;;;;5103617;28;20368;-87
2022/06/14 10:23:12;;;;;;;6.05;2.50;;;22.80;41.20;;;;;;5105055;28;20035;-82
2022/06/14 10:28:11;;;;;;;8.52;2.53;;;22.80;42.50;;;;;;5101703;28;20032;-83
2022/06/14 10:29:02;;;;;;;9.15;2.45;;;23.10;40.90;;;;;;5103349;28;20035;-82
2022/06/14 10:31:47;;;;;;;6.63;2.58;;;23.20;40.60;;;;;;5105294;28;20051;-82
2022/06/14 10:34:18;;;;;;;;;;;23.30;41.80;;;;;;5104351;28;20012;-82
2022/06/14 10:36:53;;;;;;;8.07;2.55;;;23.00;40.90;;;;;;5103782;28;19926;-81
2022/06/14 10:39:28;;;;;;;6.32;2.22;;;23.20;40.90;;;;;;5103709;28;20044;-81
2022/06/14 10:42:11;;;;;;;5.13;2.20;;;23.50;40.10;;;;;;5104673;28;20037;-83
2022/06/14 10:44:42;;;;;;;7.20;2.53;;;23.50;39.80;;;;;;5104291;28;20058;-82
2022/06/14 10:47:21;;;;;;;7.38;2.50;;;23.10;39.70;;;;;;5103164;28;20048;-82
2022/06/14 10:49:55;;;;;;;8.18;2.50;;;23.00;39.60;;;;;;5103623;28;20023;-82
2022/06/14 10:52:43;;;;;;;5.90;2.22;;;22.10;41.60;;;;;;5105340;28;20048;-83
2022/06/14 10:55:27;;;;;;;7.35;2.78;;;22.40;42.70;;;;;;5102571;28;20281;-81
2022/06/14 10:58:32;;;;;;;6.72;2.60;;;22.70;40.50;;;;;;5106152;28;20040;-81
2022/06/14 11:01:49;;;;;;;6.40;2.50;;;22.50;42.20;;;;;;5100167;28;20020;-82
2022/06/14 11:04:40;;;;;;;9.02;2.85;;;22.60;41.40;;;;;;5074799;28;20051;-83
2022/06/14 11:07:30;;;;;;;8.20;2.72;;;23.10;42.20;;;;;;5109185;28;20288;-83
2022/06/14 11:10:15;;;;;;;9.32;2.90;;;23.60;40.40;;;;;;5106497;28;20056;-82
2022/06/14 11:13:01;;;;;;;7.35;2.60;;;23.90;40.20;;;;;;5107090;28;20039;-81
2022/06/14 11:15:49;;;;;;;7.43;2.60;;;24.00;40.10;;;;;;5112351;28;20080;-81
2022/06/14 11:18:39;;;;;;;5.20;2.53;;;24.10;39.80;;;;;;5107710;28;20024;-85
2022/06/14 11:21:14;;;;;;;6.82;2.70;;;23.90;39.00;;;;;;5110744;28;20024;-83
2022/06/14 11:23:53;;;;;;;7.38;2.53;;;24.30;40.10;;;;;;5111022;28;20028;-83
2022/06/14 11:26:22;;;;;;;6.00;2.50;;;24.20;37.50;;;;;;5110353;28;20012;-85
2022/06/14 11:29:09;;;;;;;6.80;2.55;;;23.40;39.60;;;;;;5111263;28;20045;-83
2022/06/14 11:31:57;;;;;;;7.30;2.45;;;23.20;42.10;;;;;;5111452;28;20067;-82
2022/06/14 11:34:34;;;;;;;6.60;2.45;;;23.70;39.70;;;;;;5108018;28;20245;-82
2022/06/14 11:37:23;;;;;;;5.53;2.20;;;23.80;38.50;;;;;;5109400;28;20052;-85
2022/06/14 11:40:00;;;;;;;7.85;2.45;;;24.20;39.70;;;;;;5113341;27;20036;-83
2022/06/14 11:42:31;;;;;;;6.57;2.47;;;24.50;39.30;;;;;;5108709;28;20020;-82
2022/06/14 11:45:20;;;;;;;7.63;2.28;;;24.60;38.50;;;;;;5110034;28;20032;-83
2022/06/14 11:47:56;;;;;;;5.50;2.03;;;24.90;37.60;;;;;;5109891;28;20024;-83
2022/06/14 11:50:29;;;;;;;5.88;2.22;;;24.70;37.60;;;;;;5108834;27;20027;-81
2022/06/14 11:53:38;;;;;;;5.53;2.40;;;24.60;37.30;;;;;;5104111;28;20040;-82
2022/06/14 11:56:11;;;;;;;6.65;2.38;;;24.40;37.40;;;;;;5109941;28;20036;-82
2022/06/14 11:59:13;;;;;;;6.70;2.50;;;23.80;38.50;;;;;;5109740;28;20047;-81
2022/06/14 12:01:42;;;;;;;7.00;2.45;;;23.40;40.20;;;;;;5110174;28;20020;-83
2022/06/14 12:04:17;;;;;;;8.05;2.70;;;23.50;41.10;;;;;;5110638;28;20031;-82
2022/06/14 12:07:01;;;;;;;7.90;2.42;;;23.00;39.50;;;;;;5112418;28;20374;-81
2022/06/14 12:09:52;;;;;;;6.70;2.40;;;22.60;41.10;;;;;;5109408;27;20100;-81
2022/06/14 12:12:28;;;;;;;5.50;2.10;;;23.10;40.30;;;;;;5106752;28;20375;-81
2022/06/14 12:15:13;;;;;;;6.43;2.40;;;23.70;40.40;;;;;;5109491;27;20044;-82
2022/06/14 12:18:01;;;;;;;6.90;2.45;;;24.10;40.30;;;;;;5107958;27;20016;-86
2022/06/14 12:20:34;;;;;;;6.78;2.70;;;24.00;38.10;;;;;;5109210;28;20012;-88
2022/06/14 12:23:10;;;;;;;6.53;2.88;;;23.20;40.00;;;;;;5110398;28;20020;-85
2022/06/14 12:28:58;;;;;;;5.43;2.42;;;23.00;41.00;;;;;;5110714;28;20078;-92
2022/06/14 12:31:52;;;;;;;7.27;2.70;;;23.60;41.40;;;;;;5110087;28;20052;-88
2022/06/14 12:34:33;;;;;;;5.63;2.53;;;24.10;38.80;;;;;;5097770;28;20046;-88
2022/06/14 12:37:07;;;;;;;7.03;2.60;;;24.40;39.10;;;;;;5083398;28;20024;-87
2022/06/14 12:39:39;;;;;;;5.78;2.53;;;24.50;37.50;;;;;;5112571;28;20024;-89
2022/06/14 12:42:12;;;;;;;4.65;2.30;;;24.70;38.30;;;;;;5112440;28;20051;-91
2022/06/14 12:45:01;;;;;;;6.10;2.30;;;24.80;36.50;;;;;;5101719;28;20028;-83
2022/06/14 12:47:43;;;;;;;6.38;2.40;;;24.60;37.70;;;;;;5108270;28;20027;-86
2022/06/14 12:50:23;;;;;;;8.00;2.60;;;24.90;38.00;;;;;;5088957;28;20027;-86
2022/06/14 12:52:54;;;;;;;6.22;2.38;;;24.90;36.80;;;;;;5107650;28;20028;-86
2022/06/14 12:55:29;;;;;;;4.95;2.45;;;24.30;39.00;;;;;;5108201;27;20035;-85
2022/06/14 12:58:13;;;;;;;7.13;2.50;;;24.40;38.70;;;;;;5090758;28;20028;-88
2022/06/14 13:00:48;;;;;;;;;;;24.70;38.90;;;;;;5107946;27;20023;-87
2022/06/14 13:03:44;;;;;;;8.95;3.13;;;25.10;38.90;;;;;;5087476;28;19900;-86
2022/06/14 13:06:32;;;;;;;7.63;2.40;;;25.10;38.30;;;;;;5104732;28;20028;-86
2022/06/14 13:09:06;;;;;;;6.28;2.30;;;25.40;37.90;;;;;;5106082;28;20031;-90
2022/06/14 13:11:46;;;;;;;7.75;2.67;;;25.50;36.70;;;;;;5090449;28;20028;-84
2022/06/14 13:14:21;;;;;;;8.45;2.70;;;24.60;36.50;;;;;;5107077;28;20040;-88
2022/06/14 13:17:13;;;;;;;5.78;2.00;;;24.30;37.80;;;;;;5108759;28;20050;-84
2022/06/14 13:19:56;;;;;;;5.97;2.33;;;24.40;37.90;;;;;;5107869;28;20035;-84
2022/06/14 13:22:34;;;;;;;5.97;2.00;;;24.30;37.60;;;;;;5104249;28;20046;-88
2022/06/14 13:25:00;;;;;;;7.20;2.40;;;24.60;38.90;;;;;;5092145;28;20040;-88
2022/06/14 13:27:46;;;;;;;5.53;2.22;;;25.20;38.30;;;;;;5109521;27;20043;-89
2022/06/14 13:30:28;;;;;;;4.88;2.20;;;25.60;37.20;;;;;;5103952;28;20134;-86
2022/06/14 13:33:15;;;;;;;6.60;2.40;;;25.80;38.40;;;;;;5108302;28;20040;-87
2022/06/14 13:36:09;;;;;;;6.72;2.50;;;25.90;35.80;;;;;;5104166;28;20328;-85
2022/06/14 13:38:59;;;;;;;8.23;2.97;;;25.50;37.00;;;;;;5107551;28;20016;-87
2022/06/14 13:42:00;;;;;;;4.10;2.03;;;25.00;35.60;;;;;;5107686;28;20012;-89
2022/06/14 13:44:36;;;;;;;6.03;2.55;;;25.40;36.10;;;;;;5108199;28;20043;-85
2022/06/14 13:47:10;;;;;;;6.97;2.40;;;25.70;36.60;;;;;;5105433;28;20111;-83
2022/06/14 13:49:44;;;;;;;6.78;2.13;;;25.90;36.20;;;;;;5105324;28;20055;-83
2022/06/14 13:52:20;;;;;;;5.13;2.35;;;25.90;36.30;;;;;;5107294;28;20040;-83
2022/06/14 13:54:54;;;;;;;5.40;2.30;;;26.00;36.10;;;;;;5107098;28;20016;-87
2022/06/14 13:57:37;;;;;;;5.78;2.17;;;25.90;36.00;;;;;;5106840;28;20035;-87